Time;durP1;ratioP1;P1;durP2;ratioP2;P2;SDS_P1;SDS_P2;PMS_P1;PMS_P2;Temp;Humidity;BMP_temperature;BMP_pressure;BME280_temperature;BME280_humidity;BME280_pressure;Samples;Min_cycle;Max_cycle;Signal;HPM_P1;HPM_P2
2021/06/18 05:03:51;;;;;;;22.00;11.13;;;;;;;20.72;84.62;100472.41;125293;1102;104153;-76
2021/06/18 05:06:28;;;;;;;22.63;11.97;;;;;;;20.73;84.44;100471.52;125067;1102;104153;-77
2021/06/18 05:08:59;;;;;;;20.10;10.70;;;;;;;20.72;83.62;100475.94;125267;1102;104217;-78
2021/06/18 05:11:29;;;;;;;20.07;10.40;;;;;;;20.71;84.08;100468.86;125209;1102;104221;-77
2021/06/18 05:14:00;;;;;;;20.07;10.73;;;;;;;20.78;84.47;100473.23;124926;1102;107708;-77
2021/06/18 05:16:32;;;;;;;17.85;10.05;;;;;;;20.89;83.82;100472.29;125065;1102;104256;-77
2021/06/18 05:19:03;;;;;;;18.43;10.03;;;;;;;20.99;84.38;100474.01;125128;1102;104146;-80
2021/06/18 05:21:34;;;;;;;17.73;10.13;;;;;;;21.08;84.14;100475.70;125168;1102;104153;-78
2021/06/18 05:24:06;;;;;;;17.90;9.50;;;;;;;21.15;83.68;100472.97;125137;1102;104219;-78
2021/06/18 05:26:38;;;;;;;19.27;9.57;;;;;;;21.15;83.93;100486.31;125153;1102;104181;-79
2021/06/18 05:29:10;;;;;;;18.17;8.83;;;;;;;21.13;84.26;100480.11;125105;1102;104140;-78
2021/06/18 05:31:42;;;;;;;16.00;9.03;;;;;;;21.13;84.23;100490.78;124929;1104;104248;-80
2021/06/18 05:34:13;;;;;;;16.33;9.50;;;;;;;21.10;84.39;100496.14;124858;1102;104166;-77
2021/06/18 05:36:45;;;;;;;22.35;10.00;;;;;;;21.07;83.87;100503.30;124999;1102;104169;-78
2021/06/18 05:39:17;;;;;;;19.60;8.17;;;;;;;21.00;84.40;100500.67;124843;1106;104345;-77
2021/06/18 05:41:48;;;;;;;17.83;9.13;;;;;;;20.98;83.84;100510.44;124861;1105;104331;-77
2021/06/18 05:44:22;;;;;;;15.40;8.60;;;;;;;20.92;83.67;100521.16;124893;1105;104200;-78
2021/06/18 05:46:54;;;;;;;18.20;8.70;;;;;;;20.86;83.96;100512.31;124975;1105;104248;-77
2021/06/18 05:49:28;;;;;;;17.40;8.87;;;;;;;20.87;84.14;100514.09;124889;1105;104239;-78
2021/06/18 05:52:00;;;;;;;15.27;8.77;;;;;;;20.88;83.66;100513.18;124865;1106;104514;-78
2021/06/18 05:54:32;;;;;;;17.73;7.97;;;;;;;20.85;83.56;100507.86;124904;1105;104216;-79
2021/06/18 05:57:07;;;;;;;21.27;8.67;;;;;;;20.78;83.34;100505.23;124894;1105;104453;-77
2021/06/18 05:59:52;;;;;;;13.40;8.20;;;;;;;20.82;83.71;100509.67;124990;1105;104191;-78
2021/06/18 06:02:25;;;;;;;17.50;9.43;;;;;;;20.84;83.98;100506.98;124968;1105;104187;-78
2021/06/18 06:04:59;;;;;;;19.98;8.80;;;;;;;20.85;83.80;100500.77;125048;1105;104254;-77
2021/06/18 06:07:35;;;;;;;18.80;8.77;;;;;;;20.88;83.44;100505.18;125004;1105;104172;-78
2021/06/18 06:10:11;;;;;;;18.37;8.57;;;;;;;20.95;84.35;100509.59;125004;1105;104329;-77
2021/06/18 06:12:45;;;;;;;16.30;7.63;;;;;;;20.97;83.48;100510.45;124953;1106;104160;-78
2021/06/18 06:15:19;;;;;;;16.13;7.40;;;;;;;20.97;84.29;100505.13;124841;1105;118861;-77
2021/06/18 06:17:50;;;;;;;12.73;7.40;;;;;;;20.97;84.17;100503.36;124924;1105;104566;-78
2021/06/18 06:20:24;;;;;;;15.23;7.93;;;;;;;20.98;84.35;100499.77;124910;1105;105502;-78
2021/06/18 06:22:56;;;;;;;20.67;9.03;;;;;;;20.99;83.69;100495.34;124937;1105;104643;-77
2021/06/18 06:25:33;;;;;;;17.23;8.40;;;;;;;21.10;84.41;100490.81;124933;1105;104287;-77
2021/06/18 06:28:07;;;;;;;17.45;7.70;;;;;;;21.18;84.37;100485.41;125005;1105;104419;-78
2021/06/18 06:30:40;;;;;;;13.90;7.70;;;;;;;21.14;84.11;100491.66;124953;1105;104296;-78
2021/06/18 06:33:24;;;;;;;15.77;7.20;;;;;;;21.12;84.27;100485.45;124887;1105;104261;-79
2021/06/18 06:35:57;;;;;;;16.50;7.10;;;;;;;21.17;84.03;100486.30;124861;1105;109088;-78
2021/06/18 06:38:32;;;;;;;14.33;7.05;;;;;;;21.19;83.52;100476.48;124943;1105;104213;-79
2021/06/18 06:41:08;;;;;;;16.60;7.60;;;;;;;21.19;83.48;100473.82;124962;1105;104422;-77
2021/06/18 06:43:46;;;;;;;13.40;6.83;;;;;;;21.24;83.69;100472.02;124905;1106;104159;-79
2021/06/18 06:47:14;;;;;;;16.30;7.17;;;;;;;21.29;83.98;100471.98;124951;1105;104328;-80
2021/06/18 06:49:48;;;;;;;14.87;6.57;;;;;;;21.31;83.56;100489.73;124873;1105;104162;-79
2021/06/18 06:52:20;;;;;;;11.97;6.77;;;;;;;21.33;83.88;100490.63;125044;1105;104143;-76
2021/06/18 06:54:55;;;;;;;13.63;7.10;;;;;;;21.32;83.35;100482.62;124879;1105;104232;-76
2021/06/18 06:57:27;;;;;;;12.60;7.17;;;;;;;21.31;83.61;100486.19;124894;1105;104207;-77
2021/06/18 07:00:09;;;;;;;12.50;6.90;;;;;;;21.27;83.20;100485.34;125173;1102;104325;-77
2021/06/18 07:02:43;;;;;;;11.70;6.10;;;;;;;21.23;83.84;100482.70;125161;1102;104207;-77
2021/06/18 07:05:15;;;;;;;16.63;6.43;;;;;;;21.20;84.33;100483.60;125130;1102;104159;-76
2021/06/18 07:08:15;;;;;;;11.73;5.73;;;;;;;21.07;83.75;100477.49;125174;1102;104242;-76
2021/06/18 07:10:49;;;;;;;15.77;7.03;;;;;;;21.04;83.81;100485.52;124999;1102;104184;-77
2021/06/18 07:13:24;;;;;;;15.67;7.20;;;;;;;21.03;83.31;100485.53;125110;1102;104194;-78
2021/06/18 07:15:59;;;;;;;10.90;6.70;;;;;;;21.03;83.95;100485.53;125162;1102;104178;-78
2021/06/18 07:18:35;;;;;;;16.40;8.27;;;;;;;21.04;84.10;100487.31;125142;1102;104271;-77
2021/06/18 07:21:09;;;;;;;17.93;6.67;;;;;;;21.01;83.41;100489.08;125152;1102;104175;-79
2021/06/18 07:23:41;;;;;;;14.57;6.33;;;;;;;20.99;84.14;100498.02;125083;1102;104166;-77
2021/06/18 07:26:15;;;;;;;11.83;6.27;;;;;;;20.96;84.11;100493.58;125119;1102;104200;-77
2021/06/18 07:28:51;;;;;;;20.82;11.10;;;;;;;20.90;83.96;100493.62;125107;1102;104414;-76
2021/06/18 07:31:28;;;;;;;14.93;6.83;;;;;;;20.77;84.12;100505.25;124786;1102;104175;-77
2021/06/18 07:34:03;;;;;;;14.20;6.97;;;;;;;20.64;84.04;100509.73;124938;1102;104303;-78
2021/06/18 07:36:36;;;;;;;14.47;7.00;;;;;;;20.55;83.91;100501.79;125013;1102;104768;-78
2021/06/18 07:39:10;;;;;;;17.90;9.43;;;;;;;20.50;84.49;100506.27;124867;1105;104166;-77
2021/06/18 07:41:46;;;;;;;17.00;10.00;;;;;;;20.47;84.62;100508.06;124976;1105;104297;-78
2021/06/18 07:44:21;;;;;;;19.73;10.63;;;;;;;20.45;84.09;100509.83;125022;1102;104255;-78
2021/06/18 07:46:54;;;;;;;12.93;7.40;;;;;;;20.42;84.46;100507.18;124922;1102;104353;-78
2021/06/18 07:49:27;;;;;;;15.50;7.67;;;;;;;20.43;84.51;100511.63;125154;1102;104245;-77
2021/06/18 07:52:00;;;;;;;15.77;7.40;;;;;;;20.43;84.40;100518.75;125298;1102;104207;-80
2021/06/18 07:54:32;;;;;;;13.93;7.47;;;;;;;20.42;84.82;100512.51;125170;1102;104219;-79
2021/06/18 07:57:06;;;;;;;13.03;7.10;;;;;;;20.44;85.26;100512.50;125116;1102;101870;-79
2021/06/18 07:59:39;;;;;;;15.10;6.50;;;;;;;20.43;84.81;100514.30;125020;1102;104185;-77
2021/06/18 08:02:13;;;;;;;12.93;7.20;;;;;;;20.45;85.18;100515.16;124947;1105;104194;-78
2021/06/18 08:04:47;;;;;;;12.13;7.03;;;;;;;20.48;85.43;100519.60;124995;1105;104249;-80
2021/06/18 08:07:22;;;;;;;11.50;6.60;;;;;;;20.47;84.38;100516.06;124908;1105;105508;-78
2021/06/18 08:10:12;;;;;;;16.03;6.43;;;;;;;20.45;84.88;100520.49;125016;1105;104341;-79
2021/06/18 08:12:50;;;;;;;12.37;6.20;;;;;;;20.40;85.31;100532.09;124924;1102;104281;-79
2021/06/18 08:15:23;;;;;;;16.70;7.07;;;;;;;20.38;84.53;100523.19;125216;1102;104289;-79
2021/06/18 08:17:59;;;;;;;11.23;5.90;;;;;;;20.37;84.22;100526.77;125023;1102;104281;-76
2021/06/18 08:20:31;;;;;;;;;;;;;;;20.36;85.05;100527.65;125192;1102;105733;-77
2021/06/18 08:25:39;;;;;;;12.13;6.58;;;;;;;20.28;85.08;100525.02;125076;1102;104178;-76
2021/06/18 08:28:11;;;;;;;13.80;6.77;;;;;;;20.29;84.63;100527.67;124889;1105;104367;-78
2021/06/18 08:30:45;;;;;;;14.03;6.70;;;;;;;20.28;84.47;100525.89;124902;1106;104201;-79
2021/06/18 08:33:24;;;;;;;13.13;6.97;;;;;;;20.27;84.55;100517.90;124846;1105;104261;-79
2021/06/18 08:36:05;;;;;;;15.33;7.07;;;;;;;20.30;84.43;100520.55;124925;1105;104210;-81
2021/06/18 08:38:40;;;;;;;15.93;7.47;;;;;;;20.35;84.86;100533.86;125069;1105;117806;-80
2021/06/18 08:41:16;;;;;;;13.47;7.43;;;;;;;20.35;84.40;100521.44;124896;1105;104413;-79
2021/06/18 08:43:49;;;;;;;13.83;7.90;;;;;;;20.36;84.08;100523.20;124928;1105;104213;-79
2021/06/18 08:46:24;;;;;;;15.17;8.30;;;;;;;20.39;84.73;100531.17;124964;1106;104156;-75
2021/06/18 08:48:57;;;;;;;13.90;7.77;;;;;;;20.40;84.23;100522.30;125080;1105;104249;-78
2021/06/18 08:51:34;;;;;;;13.73;7.73;;;;;;;20.39;84.10;100532.97;124986;1106;104348;-76
2021/06/18 08:54:08;;;;;;;14.00;7.67;;;;;;;20.40;85.41;100522.30;125012;1106;104747;-78
2021/06/18 08:56:43;;;;;;;15.87;8.50;;;;;;;20.43;85.08;100518.75;125030;1105;104143;-79
2021/06/18 08:59:25;;;;;;;18.37;8.90;;;;;;;20.57;84.79;100521.31;125046;1105;109683;-78
2021/06/18 09:02:12;;;;;;;16.83;8.60;;;;;;;20.63;85.01;100524.86;125008;1105;104326;-79
2021/06/18 09:05:12;;;;;;;13.90;8.10;;;;;;;20.67;84.45;100524.87;125002;1105;104296;-80
2021/06/18 09:08:08;;;;;;;17.43;8.80;;;;;;;20.72;84.50;100518.61;124882;1106;105742;-77
2021/06/18 09:10:45;;;;;;;19.45;9.18;;;;;;;20.79;84.44;100522.14;125042;1106;104998;-79
2021/06/18 09:13:19;;;;;;;18.57;9.10;;;;;;;20.88;84.26;100513.18;125008;1105;104181;-79
2021/06/18 09:15:54;;;;;;;18.10;8.73;;;;;;;20.97;85.11;100515.78;125028;1106;104306;-78
2021/06/18 09:18:44;;;;;;;13.70;8.60;;;;;;;21.10;84.46;100516.58;124924;1105;104794;-78
2021/06/18 09:21:24;;;;;;;17.47;8.50;;;;;;;21.19;83.98;100520.09;124968;1105;104706;-79
2021/06/18 09:23:59;;;;;;;14.57;8.33;;;;;;;21.27;84.55;100511.11;124966;1105;104214;-79
2021/06/18 09:26:38;;;;;;;14.50;8.17;;;;;;;21.32;84.54;100510.19;124938;1105;104360;-79
2021/06/18 09:29:18;;;;;;;12.57;7.43;;;;;;;21.36;84.06;100511.04;124855;1102;104293;-79
2021/06/18 09:31:58;;;;;;;15.30;7.40;;;;;;;21.36;84.57;100506.61;124859;1103;104158;-79
2021/06/18 09:34:46;;;;;;;16.37;8.40;;;;;;;21.40;84.16;100512.80;124976;1102;104146;-78
2021/06/18 09:37:31;;;;;;;15.87;7.50;;;;;;;21.40;84.25;100512.80;124927;1102;104205;-78
2021/06/18 09:40:09;;;;;;;15.97;8.57;;;;;;;21.35;84.38;100510.16;124870;1102;104237;-79
2021/06/18 09:42:54;;;;;;;16.63;8.20;;;;;;;21.36;83.35;100503.94;124966;1105;104171;-78
2021/06/18 09:45:31;;;;;;;14.60;7.47;;;;;;;21.35;84.42;100499.48;125080;1102;104207;-79
2021/06/18 09:48:16;;;;;;;17.40;7.50;;;;;;;21.35;83.85;100502.16;125179;1102;104287;-79
2021/06/18 09:50:50;;;;;;;14.40;7.90;;;;;;;21.44;83.64;100513.64;125173;1102;104238;-79
2021/06/18 09:53:27;;;;;;;12.83;7.60;;;;;;;21.52;84.09;100519.86;125214;1103;101719;-79
2021/06/18 09:56:13;;;;;;;14.00;8.07;;;;;;;21.62;83.87;100520.64;125235;1102;104241;-79
2021/06/18 09:58:47;;;;;;;12.20;7.70;;;;;;;21.69;83.60;100519.66;125177;1102;104198;-79
2021/06/18 10:01:27;;;;;;;13.83;7.13;;;;;;;21.78;83.17;100514.23;125283;1102;104303;-79
2021/06/18 10:04:02;;;;;;;13.87;7.10;;;;;;;21.95;82.96;100515.86;125140;1102;104592;-79
2021/06/18 10:06:35;;;;;;;11.73;7.50;;;;;;;22.14;83.49;100506.71;125137;1102;104165;-77
2021/06/18 10:09:14;;;;;;;13.88;7.45;;;;;;;22.42;83.39;100509.08;125031;1102;104143;-77
2021/06/18 10:11:56;;;;;;;13.43;6.97;;;;;;;22.66;82.95;100507.87;125075;1102;104166;-76
2021/06/18 10:14:27;;;;;;;12.90;7.60;;;;;;;22.87;82.47;100512.02;125125;1102;104213;-77
2021/06/18 10:17:01;;;;;;;11.33;6.90;;;;;;;23.00;82.69;100514.51;125019;1102;104197;-78
2021/06/18 10:19:31;;;;;;;;;;;;;;;23.10;81.85;100510.83;125116;1102;104251;-77
2021/06/18 10:22:07;;;;;;;10.90;6.10;;;;;;;23.15;81.63;100512.53;125074;1102;104242;-77
2021/06/18 10:24:43;;;;;;;10.05;6.05;;;;;;;23.20;82.28;100508.88;125063;1102;104297;-76
2021/06/18 10:27:18;;;;;;;13.13;6.50;;;;;;;23.24;81.77;100511.48;125155;1102;104322;-76
2021/06/18 10:29:49;;;;;;;14.87;6.73;;;;;;;23.24;82.21;100516.84;125119;1102;104617;-78
2021/06/18 10:32:34;;;;;;;11.67;5.60;;;;;;;23.31;82.06;100521.19;125154;1102;104274;-79
2021/06/18 10:35:07;;;;;;;11.20;6.57;;;;;;;23.36;80.66;100518.44;125154;1102;104155;-76
2021/06/18 10:37:47;;;;;;;;;;;;;;;23.48;79.99;100509.30;124928;1105;104345;-77
2021/06/18 10:40:20;;;;;;;11.47;5.43;;;;;;;23.59;79.96;100499.30;124892;1103;104293;-76
2021/06/18 10:43:13;;;;;;;6.93;5.00;;;;;;;23.77;80.12;100507.90;124949;1102;104185;-77
2021/06/18 10:46:08;;;;;;;12.30;5.97;;;;;;;23.89;80.62;100496.98;124920;1105;104312;-78
2021/06/18 10:49:05;;;;;;;10.07;5.50;;;;;;;23.95;80.05;100493.28;124966;1106;104685;-78
2021/06/18 10:51:51;;;;;;;11.23;5.60;;;;;;;23.89;80.08;100499.66;124886;1102;120296;-78
2021/06/18 10:54:44;;;;;;;9.77;6.03;;;;;;;23.75;81.10;100494.53;124999;1102;104181;-78
2021/06/18 10:57:19;;;;;;;8.30;5.07;;;;;;;23.66;80.27;100500.93;125016;1102;104182;-79
2021/06/18 10:59:52;;;;;;;8.07;4.97;;;;;;;23.61;79.35;100497.47;124946;1102;104182;-78
2021/06/18 11:02:40;;;;;;;17.07;5.50;;;;;;;23.62;79.96;100501.02;124977;1102;104309;-78
2021/06/18 11:05:43;;;;;;;9.80;5.10;;;;;;;23.68;79.78;100493.77;124996;1105;104197;-79
2021/06/18 11:08:32;;;;;;;7.47;5.03;;;;;;;23.79;79.44;100489.98;124983;1106;104197;-79
2021/06/18 11:11:29;;;;;;;10.50;5.03;;;;;;;23.77;79.62;100486.47;124927;1102;104593;-78
2021/06/18 11:14:17;;;;;;;10.30;4.87;;;;;;;23.72;79.23;100488.33;124932;1105;104419;-78
2021/06/18 11:16:51;;;;;;;7.57;5.03;;;;;;;23.71;79.53;100497.30;124981;1105;104264;-79
2021/06/18 11:19:31;;;;;;;9.43;5.00;;;;;;;23.69;78.33;100497.33;125038;1104;104412;-79
2021/06/18 11:22:40;;;;;;;9.20;4.90;;;;;;;23.76;78.18;100482.88;124938;1106;104335;-78
2021/06/18 11:25:53;;;;;;;7.17;4.97;;;;;;;23.83;78.37;100480.99;124921;1105;104287;-80
2021/06/18 11:28:46;;;;;;;8.33;4.80;;;;;;;23.95;77.26;100490.59;124660;1105;104172;-80
2021/06/18 11:31:38;;;;;;;7.07;5.00;;;;;;;24.10;78.42;100484.06;124620;1105;104319;-79
2021/06/18 11:34:24;;;;;;;;;;;;;;;24.32;77.96;100484.48;124668;1105;104297;-80
2021/06/18 11:37:00;;;;;;;8.87;5.00;;;;;;;24.47;77.91;100477.92;124893;1105;104335;-78
2021/06/18 11:39:33;;;;;;;6.85;4.25;;;;;;;24.50;78.24;100489.45;124849;1105;104255;-79
2021/06/18 11:42:09;;;;;;;8.93;4.67;;;;;;;24.43;77.58;100481.58;124945;1105;104211;-78
2021/06/18 11:44:42;;;;;;;7.73;4.37;;;;;;;24.39;77.61;100481.64;124966;1106;104323;-80
2021/06/18 11:47:17;;;;;;;7.93;4.53;;;;;;;24.38;77.77;100477.19;125027;1102;104146;-77
2021/06/18 11:49:52;;;;;;;8.70;4.97;;;;;;;24.38;76.12;100470.95;124922;1102;104404;-78
2021/06/18 11:52:31;;;;;;;7.57;4.50;;;;;;;24.30;76.97;100478.28;124881;1103;104242;-78
2021/06/18 11:55:04;;;;;;;7.10;4.60;;;;;;;24.17;77.37;100469.62;124960;1102;104268;-77
2021/06/18 11:57:43;;;;;;;7.50;4.90;;;;;;;24.08;76.84;100475.18;124967;1102;104405;-79
2021/06/18 12:00:18;;;;;;;9.30;4.65;;;;;;;23.88;77.17;100479.12;124962;1102;104262;-80
2021/06/18 12:02:53;;;;;;;8.60;5.00;;;;;;;23.71;76.53;100478.55;124983;1101;104150;-79
2021/06/18 12:05:33;;;;;;;11.37;5.13;;;;;;;23.53;76.45;100477.08;125181;1102;104245;-80
2021/06/18 12:08:17;;;;;;;9.07;5.00;;;;;;;23.47;77.27;100472.73;125128;1103;104229;-77
2021/06/18 12:10:48;;;;;;;8.60;5.00;;;;;;;23.41;76.95;100473.72;125167;1102;104165;-77
2021/06/18 12:13:32;;;;;;;8.27;4.90;;;;;;;23.30;76.84;100479.25;125155;1102;104191;-77
2021/06/18 12:16:13;;;;;;;10.83;5.80;;;;;;;23.18;77.28;100514.25;125127;1101;104335;-77
2021/06/18 12:18:46;;;;;;;16.53;6.23;;;;;;;22.97;77.09;100537.73;125094;1102;104797;-77
2021/06/18 12:21:30;;;;;;;7.13;3.90;;;;;;;22.32;77.03;100526.16;125135;1102;104229;-77
2021/06/18 12:24:04;;;;;;;;;;;;;;;21.51;77.12;100520.74;125423;1102;105735;-78
2021/06/18 12:26:39;;;;;;;6.63;4.00;;;;;;;20.86;77.03;100509.65;125196;1102;104165;-79
2021/06/18 12:29:12;;;;;;;6.93;3.80;;;;;;;20.52;78.93;100510.71;125100;1102;104146;-78
2021/06/18 12:31:45;;;;;;;7.43;4.10;;;;;;;20.39;78.99;100499.20;125142;1102;104319;-78
2021/06/18 12:34:19;;;;;;;8.95;4.12;;;;;;;20.33;78.92;100499.23;125131;1103;104297;-77
2021/06/18 12:37:00;;;;;;;6.03;3.70;;;;;;;20.26;78.66;100495.71;125077;1102;104172;-77
2021/06/18 12:39:46;;;;;;;6.53;3.90;;;;;;;20.23;79.13;100492.19;125219;1102;104165;-77
2021/06/18 12:42:23;;;;;;;8.37;4.50;;;;;;;20.39;78.92;100493.87;125052;1102;104181;-78
2021/06/18 12:45:04;;;;;;;7.37;4.60;;;;;;;20.59;78.47;100487.56;125154;1102;104188;-79
2021/06/18 12:47:37;;;;;;;7.67;5.27;;;;;;;20.79;79.05;100480.36;125210;1102;104169;-77
2021/06/18 12:50:25;;;;;;;9.63;5.60;;;;;;;21.00;78.48;100484.66;125185;1102;104296;-77
2021/06/18 12:52:59;;;;;;;12.67;6.30;;;;;;;21.30;79.31;100479.97;125127;1102;104179;-78
2021/06/18 12:55:40;;;;;;;11.03;6.17;;;;;;;21.62;79.63;100475.26;125164;1102;104149;-81
2021/06/18 12:58:14;;;;;;;11.43;6.40;;;;;;;21.84;79.09;100470.56;125170;1102;104153;-79
2021/06/18 13:01:00;;;;;;;11.70;5.97;;;;;;;22.05;79.38;100466.77;125091;1102;104702;-79
2021/06/18 13:03:36;;;;;;;12.27;7.00;;;;;;;22.24;79.56;100460.27;125163;1102;105472;-79
2021/06/18 13:06:12;;;;;;;11.10;6.77;;;;;;;22.48;79.06;100466.22;125200;1102;104307;-77
2021/06/18 13:08:50;;;;;;;8.47;6.00;;;;;;;22.56;78.98;100460.77;125197;1102;104146;-78
2021/06/18 13:11:27;;;;;;;10.33;6.60;;;;;;;22.67;79.39;100465.96;125146;1102;104252;-77
2021/06/18 13:14:19;;;;;;;12.77;6.90;;;;;;;22.82;79.18;100468.41;125137;1102;104277;-79
2021/06/18 13:17:12;;;;;;;8.43;5.63;;;;;;;23.04;78.90;100470.75;125277;1102;104219;-79
2021/06/18 13:19:46;;;;;;;7.80;5.40;;;;;;;23.11;78.94;100467.98;125162;1102;104332;-78
2021/06/18 13:22:38;;;;;;;7.80;5.07;;;;;;;23.06;77.91;100469.83;125087;1102;104165;-77
2021/06/18 13:25:18;;;;;;;7.33;4.70;;;;;;;23.14;78.34;100461.70;125126;1102;104216;-79
2021/06/18 13:27:53;;;;;;;7.13;5.03;;;;;;;23.26;78.48;100464.14;125166;1102;104271;-80
2021/06/18 13:30:34;;;;;;;7.67;5.00;;;;;;;23.35;78.26;100456.89;125221;1102;104139;-79
2021/06/18 13:33:19;;;;;;;6.93;4.40;;;;;;;23.45;77.88;100462.05;125128;1102;104216;-78
2021/06/18 13:36:00;;;;;;;7.05;4.65;;;;;;;23.45;77.32;100454.02;125162;1102;104270;-78
2021/06/18 13:38:35;;;;;;;8.17;4.43;;;;;;;23.39;77.37;100447.87;125253;1102;104172;-78
2021/06/18 13:41:33;;;;;;;9.20;4.50;;;;;;;23.47;77.58;100448.63;125156;1102;104281;-79
2021/06/18 13:44:18;;;;;;;6.47;4.43;;;;;;;23.64;77.30;100443.84;125128;1102;104254;-79
2021/06/18 13:46:49;;;;;;;6.27;4.20;;;;;;;23.68;76.61;100439.30;125144;1102;104226;-77
2021/06/18 13:49:20;;;;;;;7.73;4.30;;;;;;;23.77;77.52;100440.92;125109;1102;104144;-77
2021/06/18 13:51:51;;;;;;;8.37;4.20;;;;;;;23.74;77.28;100449.02;125211;1102;104194;-77
2021/06/18 13:54:28;;;;;;;5.95;4.30;;;;;;;23.61;77.13;100441.22;125181;1102;104232;-78
2021/06/18 13:57:06;;;;;;;8.23;4.30;;;;;;;23.49;77.12;100439.64;125208;1102;104380;-79
2021/06/18 13:59:39;;;;;;;7.20;4.00;;;;;;;23.48;76.92;100432.54;125211;1102;104776;-79
2021/06/18 14:02:13;;;;;;;6.80;4.20;;;;;;;23.49;77.08;100433.41;124941;1103;104299;-79
2021/06/18 14:04:49;;;;;;;5.00;4.20;;;;;;;23.53;76.81;100443.17;125121;1102;104306;-77
2021/06/18 14:07:22;;;;;;;4.80;3.67;;;;;;;23.54;76.48;100436.87;125121;1102;104239;-78
2021/06/18 14:09:56;;;;;;;10.93;4.20;;;;;;;23.58;76.84;100430.56;124979;1102;104188;-78
2021/06/18 14:12:31;;;;;;;7.03;3.92;;;;;;;23.67;76.49;100432.19;125041;1102;104226;-78
2021/06/18 14:15:17;;;;;;;4.60;3.07;;;;;;;23.76;76.52;100421.27;125080;1102;104354;-78
2021/06/18 14:17:51;;;;;;;3.57;2.80;;;;;;;23.81;76.17;100430.12;125136;1102;104169;-77
2021/06/18 14:20:23;;;;;;;3.30;3.00;;;;;;;23.82;75.09;100430.98;125138;1102;104149;-77
2021/06/18 14:22:58;;;;;;;5.40;3.37;;;;;;;23.85;75.38;100428.28;125080;1102;104207;-78
2021/06/18 14:25:33;;;;;;;6.30;3.33;;;;;;;23.83;72.86;100425.59;125020;1102;104181;-78
2021/06/18 14:28:06;;;;;;;5.30;3.00;;;;;;;23.88;74.82;100421.98;125057;1102;104347;-78
2021/06/18 14:30:48;;;;;;;5.90;2.93;;;;;;;23.91;74.07;100424.61;125153;1102;104245;-77
2021/06/18 14:36:31;;;;;;;6.33;3.10;;;;;;;23.94;73.19;100425.41;124778;1102;104246;-79
2021/06/18 14:39:02;;;;;;;5.77;2.70;;;;;;;23.97;71.75;100433.39;125040;1102;104255;-78
2021/06/18 14:41:33;;;;;;;6.33;3.10;;;;;;;24.02;73.32;100434.17;125047;1102;104342;-78
2021/06/18 14:44:07;;;;;;;7.20;2.70;;;;;;;24.00;72.08;100427.09;125146;1102;104162;-78
2021/06/18 14:46:39;;;;;;;10.07;3.00;;;;;;;24.01;71.60;100427.06;125163;1102;104136;-79
2021/06/18 14:49:11;;;;;;;8.03;3.07;;;;;;;24.07;72.86;100428.71;125061;1102;104201;-79
2021/06/18 14:51:46;;;;;;;6.93;3.10;;;;;;;24.16;72.74;100424.97;125071;1102;104213;-79
2021/06/18 14:54:19;;;;;;;3.00;2.70;;;;;;;24.27;71.89;100424.73;125032;1102;104175;-78
2021/06/18 14:56:50;;;;;;;5.03;2.53;;;;;;;24.35;69.16;100426.30;124945;1102;104309;-79
2021/06/18 14:59:21;;;;;;;6.80;2.73;;;;;;;24.41;70.14;100428.84;124945;1102;104200;-78
2021/06/18 15:01:52;;;;;;;2.93;2.63;;;;;;;24.40;69.06;100424.42;125015;1102;104213;-79
2021/06/18 15:04:24;;;;;;;3.97;2.50;;;;;;;24.34;69.96;100432.61;125020;1102;104299;-78
2021/06/18 15:06:54;;;;;;;2.70;2.50;;;;;;;24.25;70.20;100443.53;125032;1102;104182;-78
2021/06/18 15:09:26;;;;;;;6.17;2.53;;;;;;;24.17;69.80;100441.02;125041;1102;104316;-78
2021/06/18 15:11:56;;;;;;;3.33;2.20;;;;;;;24.08;70.53;100453.73;125120;1102;104156;-78
2021/06/18 15:14:29;;;;;;;4.97;2.57;;;;;;;23.95;70.18;100453.98;125085;1102;104217;-79
2021/06/18 15:17:04;;;;;;;6.80;2.83;;;;;;;23.90;70.29;100450.50;125093;1102;104309;-79
2021/06/18 15:19:38;;;;;;;4.83;2.53;;;;;;;23.84;69.78;100459.56;125159;1102;104318;-79
2021/06/18 15:22:09;;;;;;;5.10;2.27;;;;;;;23.76;68.72;100468.61;125231;1102;104188;-78
2021/06/18 15:24:39;;;;;;;4.77;2.50;;;;;;;23.51;68.16;100479.78;125112;1102;104179;-77
2021/06/18 15:27:11;;;;;;;4.47;2.40;;;;;;;23.37;69.02;100484.51;125056;1102;104143;-78
2021/06/18 15:29:41;;;;;;;5.47;2.60;;;;;;;23.21;69.12;100494.59;125178;1100;104303;-78
2021/06/18 15:32:12;;;;;;;5.27;2.70;;;;;;;23.12;69.19;100482.23;125022;1102;104175;-78
2021/06/18 15:34:43;;;;;;;3.20;2.43;;;;;;;23.05;69.62;100481.43;125165;1102;104598;-78
2021/06/18 15:37:17;;;;;;;4.23;2.40;;;;;;;22.98;69.20;100491.36;125069;1102;104332;-79
2021/06/18 15:39:50;;;;;;;4.67;2.40;;;;;;;22.96;68.98;100485.13;125110;1102;104624;-77
2021/06/18 15:42:21;;;;;;;3.83;2.20;;;;;;;22.97;69.42;100489.58;125216;1102;104256;-78
2021/06/18 15:44:51;;;;;;;5.57;2.30;;;;;;;22.98;69.65;100487.77;125159;1101;104143;-78
2021/06/18 15:47:22;;;;;;;4.43;2.63;;;;;;;23.00;69.73;100490.42;125089;1102;104140;-78
2021/06/18 15:49:53;;;;;;;4.17;2.50;;;;;;;23.02;69.34;100485.95;125179;1102;104267;-78
2021/06/18 15:52:24;;;;;;;5.03;2.20;;;;;;;23.07;69.49;100476.05;125161;1102;104596;-79
2021/06/18 15:54:55;;;;;;;6.85;2.60;;;;;;;23.17;69.50;100487.52;125146;1101;104249;-77
2021/06/18 15:57:25;;;;;;;5.53;2.67;;;;;;;23.24;69.15;100484.71;125156;1102;104358;-78
2021/06/18 15:59:56;;;;;;;4.77;2.30;;;;;;;23.36;69.49;100480.95;125166;1102;104155;-79
2021/06/18 16:02:27;;;;;;;3.70;2.40;;;;;;;23.39;69.03;100488.94;125268;1102;104169;-79
2021/06/18 16:04:58;;;;;;;4.83;2.30;;;;;;;23.32;69.08;100482.78;125193;1102;104171;-79
2021/06/18 16:07:29;;;;;;;4.13;2.60;;;;;;;23.21;68.83;100482.09;125120;1102;104252;-78
2021/06/18 16:10:01;;;;;;;7.23;3.07;;;;;;;23.10;68.83;100501.00;125100;1102;104688;-79
2021/06/18 16:12:32;;;;;;;6.90;3.00;;;;;;;23.01;68.74;100505.58;125176;1102;104145;-78
2021/06/18 16:15:03;;;;;;;5.80;2.73;;;;;;;22.96;68.33;100509.20;125154;1102;104188;-79
2021/06/18 16:17:43;;;;;;;5.97;2.67;;;;;;;22.92;68.59;100512.86;125144;1102;104195;-79
2021/06/18 16:20:15;;;;;;;4.63;2.70;;;;;;;22.97;68.66;100510.11;125281;1102;102399;-79
2021/06/18 16:22:47;;;;;;;5.80;2.60;;;;;;;23.04;67.41;100513.56;125172;1100;104325;-78
2021/06/18 16:25:20;;;;;;;4.05;2.30;;;;;;;23.08;68.54;100517.97;125202;1102;105121;-78
2021/06/18 16:27:52;;;;;;;4.93;2.40;;;;;;;23.07;67.37;100521.55;125158;1102;104169;-79
2021/06/18 16:30:24;;;;;;;6.20;2.70;;;;;;;23.05;68.25;100518.89;125187;1102;104245;-79
2021/06/18 16:32:56;;;;;;;3.93;2.83;;;;;;;23.04;68.67;100521.59;125191;1102;104144;-78
2021/06/18 16:35:28;;;;;;;3.77;2.60;;;;;;;23.01;68.42;100524.31;125221;1102;104245;-80
2021/06/18 16:37:58;;;;;;;5.63;2.60;;;;;;;22.93;68.26;100522.63;125130;1102;104233;-79
2021/06/18 16:40:30;;;;;;;7.47;2.80;;;;;;;22.85;68.48;100518.32;124986;1106;104315;-79
2021/06/18 16:43:01;;;;;;;4.03;2.70;;;;;;;22.79;68.67;100514.80;125031;1102;104600;-79
2021/06/18 16:45:32;;;;;;;6.20;2.60;;;;;;;22.78;68.64;100512.15;124981;1102;104249;-78
2021/06/18 16:48:03;;;;;;;8.90;2.70;;;;;;;22.76;68.60;100511.30;124888;1102;104329;-79
2021/06/18 16:50:37;;;;;;;5.78;3.00;;;;;;;22.73;68.24;100514.02;125015;1102;104252;-78
2021/06/18 16:53:09;;;;;;;8.33;3.10;;;;;;;22.72;68.00;100522.94;124945;1102;104302;-79
2021/06/18 16:55:40;;;;;;;3.30;2.67;;;;;;;22.68;68.54;100519.42;125003;1102;104187;-79
2021/06/18 16:58:11;;;;;;;2.97;2.53;;;;;;;22.63;67.84;100523.97;124965;1102;104155;-77